createdAt,value
2019-03-27T00:00:31.700Z,1023.38
2019-03-27T00:01:31.619Z,1023.38
2019-03-27T00:02:31.627Z,1023.40
2019-03-27T00:03:32.622Z,1023.33
2019-03-27T00:04:31.586Z,1023.39
2019-03-27T00:05:31.591Z,1023.43
2019-03-27T00:06:31.584Z,1023.44
2019-03-27T00:07:31.558Z,1023.43
2019-03-27T00:08:31.552Z,1023.48
2019-03-27T00:09:31.539Z,1023.45
2019-03-27T00:10:31.539Z,1023.43
2019-03-27T00:11:31.515Z,1023.43
2019-03-27T00:12:31.523Z,1023.47
2019-03-27T00:13:31.523Z,1023.49
2019-03-27T00:14:31.484Z,1023.51
2019-03-27T00:15:31.488Z,1023.42
2019-03-27T00:16:31.465Z,1023.51
2019-03-27T00:17:31.457Z,1023.47
2019-03-27T00:18:31.441Z,1023.48
2019-03-27T00:19:31.474Z,1023.43
2019-03-27T00:20:31.435Z,1023.40
2019-03-27T00:21:31.413Z,1023.38
2019-03-27T00:22:31.396Z,1023.42
2019-03-27T00:23:31.388Z,1023.45
2019-03-27T00:24:31.382Z,1023.49
2019-03-27T00:25:31.421Z,1023.43
2019-03-27T00:26:31.352Z,1023.42
2019-03-27T00:27:31.383Z,1023.47
2019-03-27T00:28:31.333Z,1023.41
2019-03-27T00:29:31.319Z,1023.47
2019-03-27T00:30:31.341Z,1023.44
2019-03-27T00:31:31.313Z,1023.45
2019-03-27T00:32:31.289Z,1023.44
2019-03-27T00:33:31.309Z,1023.44
2019-03-27T00:34:31.270Z,1023.52
2019-03-27T00:35:31.255Z,1023.49
2019-03-27T00:36:31.263Z,1023.51
2019-03-27T00:37:31.243Z,1023.48
2019-03-27T00:38:31.223Z,1023.51
2019-03-27T00:39:31.213Z,1023.48
2019-03-27T00:40:31.216Z,1023.48
2019-03-27T00:41:31.295Z,1023.43
2019-03-27T00:42:31.181Z,1023.43
2019-03-27T00:43:31.172Z,1023.44
2019-03-27T00:44:31.161Z,1023.44
2019-03-27T00:45:31.146Z,1023.41
2019-03-27T00:46:31.158Z,1023.42
2019-03-27T00:47:31.128Z,1023.39
2019-03-27T00:48:31.134Z,1023.36
2019-03-27T00:49:31.105Z,1023.48
2019-03-27T00:50:31.098Z,1023.45
2019-03-27T00:51:31.100Z,1023.47
2019-03-27T00:52:31.079Z,1023.43
2019-03-27T00:53:31.067Z,1023.44
2019-03-27T00:54:31.066Z,1023.44
2019-03-27T00:55:31.060Z,1023.40
2019-03-27T00:56:31.056Z,1023.51
2019-03-27T00:57:31.029Z,1023.47
2019-03-27T00:58:31.009Z,1023.45
2019-03-27T00:59:30.997Z,1023.44
2019-03-27T01:00:30.990Z,1023.39
2019-03-27T01:01:31.052Z,1023.41
2019-03-27T01:02:30.966Z,1023.43
2019-03-27T01:03:30.954Z,1023.40
2019-03-27T01:04:30.948Z,1023.41
2019-03-27T01:05:30.933Z,1023.51
2019-03-27T01:06:30.933Z,1023.40
2019-03-27T01:07:30.936Z,1023.40
2019-03-27T01:08:30.904Z,1023.42
2019-03-27T01:09:30.892Z,1023.48
2019-03-27T01:10:30.890Z,1023.42
2019-03-27T01:11:30.904Z,1023.39
2019-03-27T01:12:30.858Z,1023.34
2019-03-27T01:13:30.856Z,1023.40
2019-03-27T01:14:30.908Z,1023.36
2019-03-27T01:15:39.591Z,1023.35
2019-03-27T01:16:31.847Z,1023.37
2019-03-27T01:17:30.805Z,1023.36
2019-03-27T01:18:30.800Z,1023.36
2019-03-27T01:19:30.786Z,1023.35
2019-03-27T01:20:30.787Z,1023.34
2019-03-27T01:21:30.763Z,1023.39
2019-03-27T01:22:30.767Z,1023.39
2019-03-27T01:23:30.740Z,1023.40
2019-03-27T01:24:30.727Z,1023.42
2019-03-27T01:25:30.719Z,1023.40
2019-03-27T01:26:30.726Z,1023.42
2019-03-27T01:27:30.735Z,1023.41
2019-03-27T01:28:30.685Z,1023.47
2019-03-27T01:29:30.678Z,1023.41
2019-03-27T01:30:30.664Z,1023.40
2019-03-27T01:31:30.657Z,1023.40
2019-03-27T01:32:30.662Z,1023.34
2019-03-27T01:33:30.663Z,1023.45
2019-03-27T01:34:30.665Z,1023.37
2019-03-27T01:35:30.619Z,1023.41
2019-03-27T01:36:30.607Z,1023.40
2019-03-27T01:37:30.611Z,1023.45
2019-03-27T01:38:30.580Z,1023.41
2019-03-27T01:39:30.571Z,1023.42
2019-03-27T01:40:30.564Z,1023.46
2019-03-27T01:41:30.576Z,1023.47
2019-03-27T01:42:30.557Z,1023.47
2019-03-27T01:43:30.529Z,1023.55
2019-03-27T01:44:30.519Z,1023.47
2019-03-27T01:45:30.509Z,1023.48
2019-03-27T01:46:30.504Z,1023.51
2019-03-27T01:47:30.553Z,1023.56
2019-03-27T01:48:30.474Z,1023.53
2019-03-27T01:49:30.469Z,1023.55
2019-03-27T01:50:30.453Z,1023.58
2019-03-27T01:51:30.443Z,1023.54
2019-03-27T01:52:30.445Z,1023.49
2019-03-27T01:53:30.441Z,1023.56
2019-03-27T01:54:30.413Z,1023.45
2019-03-27T01:55:30.401Z,1023.59
2019-03-27T01:56:30.392Z,1023.48
2019-03-27T01:57:30.394Z,1023.50
2019-03-27T01:58:30.371Z,1023.44
2019-03-27T01:59:30.381Z,1023.49
2019-03-27T02:00:30.355Z,1023.53
2019-03-27T02:01:30.337Z,1023.53
2019-03-27T02:02:30.354Z,1023.57
2019-03-27T02:03:30.321Z,1023.50
2019-03-27T02:04:30.310Z,1023.54
2019-03-27T02:05:30.294Z,1023.61
2019-03-27T02:06:30.320Z,1023.56
2019-03-27T02:07:30.328Z,1023.54
2019-03-27T02:08:30.274Z,1023.58
2019-03-27T02:09:30.324Z,1023.57
2019-03-27T02:10:30.248Z,1023.59
2019-03-27T02:11:30.229Z,1023.59
2019-03-27T02:12:30.218Z,1023.58
2019-03-27T02:13:30.256Z,1023.59
2019-03-27T02:14:30.197Z,1023.54
2019-03-27T02:15:30.182Z,1023.59
2019-03-27T02:16:30.173Z,1023.48
2019-03-27T02:17:30.170Z,1023.47
2019-03-27T02:18:30.166Z,1023.50
2019-03-27T02:19:30.140Z,1023.52
2019-03-27T02:20:30.160Z,1023.51
2019-03-27T02:21:30.126Z,1023.60
2019-03-27T02:22:30.116Z,1023.54
2019-03-27T02:23:30.119Z,1023.57
2019-03-27T02:24:30.089Z,1023.61
2019-03-27T02:25:30.086Z,1023.57
2019-03-27T02:26:30.100Z,1023.58
2019-03-27T02:27:30.058Z,1023.59
2019-03-27T02:28:30.066Z,1023.54
2019-03-27T02:29:30.040Z,1023.54
2019-03-27T02:30:30.029Z,1023.56
2019-03-27T02:31:30.023Z,1023.51
2019-03-27T02:32:30.053Z,1023.53
2019-03-27T02:33:30.007Z,1023.51
2019-03-27T02:34:29.988Z,1023.47
2019-03-27T02:35:29.976Z,1023.54
2019-03-27T02:36:29.969Z,1023.51
2019-03-27T02:37:29.953Z,1023.54
2019-03-27T02:38:30.004Z,1023.57
2019-03-27T02:39:29.933Z,1023.59
2019-03-27T02:40:29.922Z,1023.58
2019-03-27T02:41:29.906Z,1023.61
2019-03-27T02:42:29.895Z,1023.56
2019-03-27T02:43:29.886Z,1023.56
2019-03-27T02:44:29.929Z,1023.56
2019-03-27T02:45:29.869Z,1023.53
2019-03-27T02:46:29.894Z,1023.53
2019-03-27T02:47:29.847Z,1023.54
2019-03-27T02:48:29.846Z,1023.57
2019-03-27T02:49:29.840Z,1023.51
2019-03-27T02:50:29.832Z,1023.49
2019-03-27T02:51:29.840Z,1023.54
2019-03-27T02:52:29.789Z,1023.56
2019-03-27T02:53:29.780Z,1023.54
2019-03-27T02:54:29.791Z,1023.48
2019-03-27T02:55:29.767Z,1023.56
2019-03-27T02:56:29.754Z,1023.51
2019-03-27T02:57:29.776Z,1023.56
2019-03-27T02:58:29.738Z,1023.50
2019-03-27T02:59:29.744Z,1023.50
2019-03-27T03:00:29.702Z,1023.50
2019-03-27T03:01:29.695Z,1023.47
2019-03-27T03:02:29.686Z,1023.53
2019-03-27T03:03:29.672Z,1023.50
2019-03-27T03:04:29.675Z,1023.49
2019-03-27T03:05:29.690Z,1023.44
2019-03-27T03:06:29.641Z,1023.48
2019-03-27T03:07:29.632Z,1023.43
2019-03-27T03:08:29.629Z,1023.50
2019-03-27T03:09:29.626Z,1023.53
2019-03-27T03:10:29.596Z,1023.53
2019-03-27T03:11:29.605Z,1023.53
2019-03-27T03:12:29.580Z,1023.54
2019-03-27T03:13:29.568Z,1023.58
2019-03-27T03:14:29.573Z,1023.55
2019-03-27T03:15:29.543Z,1023.56
2019-03-27T03:16:41.838Z,1023.57
2019-03-27T03:17:30.551Z,1023.58
2019-03-27T03:18:29.511Z,1023.62
2019-03-27T03:19:29.517Z,1023.55
2019-03-27T03:20:29.499Z,1023.58
2019-03-27T03:21:29.489Z,1023.63
2019-03-27T03:22:29.477Z,1023.65
2019-03-27T03:23:29.478Z,1023.70
2019-03-27T03:24:29.523Z,1023.66
2019-03-27T03:25:29.439Z,1023.62
2019-03-27T03:26:29.434Z,1023.71
2019-03-27T03:27:29.417Z,1023.72
2019-03-27T03:28:29.405Z,1023.70
2019-03-27T03:29:29.394Z,1023.74
2019-03-27T03:30:29.408Z,1023.68
2019-03-27T03:31:29.378Z,1023.77
2019-03-27T03:32:29.390Z,1023.73
2019-03-27T03:33:29.354Z,1023.70
2019-03-27T03:34:29.358Z,1023.75
2019-03-27T03:35:29.345Z,1023.70
2019-03-27T03:36:29.319Z,1023.66
2019-03-27T03:37:29.310Z,1023.64
2019-03-27T03:38:29.458Z,1023.66
2019-03-27T03:39:29.316Z,1023.73
2019-03-27T03:40:29.324Z,1023.69
2019-03-27T03:41:29.273Z,1023.68
2019-03-27T03:42:29.253Z,1023.71
2019-03-27T03:43:29.248Z,1023.72
2019-03-27T03:44:29.240Z,1023.69
2019-03-27T03:45:29.233Z,1023.70
2019-03-27T03:46:29.225Z,1023.72
2019-03-27T03:47:29.199Z,1023.71
2019-03-27T03:48:29.190Z,1023.74
2019-03-27T03:49:29.181Z,1023.76
2019-03-27T03:50:29.207Z,1023.77
2019-03-27T03:51:29.162Z,1023.74
2019-03-27T03:52:29.191Z,1023.79
2019-03-27T03:53:29.140Z,1023.76
2019-03-27T03:54:29.123Z,1023.73
2019-03-27T03:55:29.132Z,1023.67
2019-03-27T03:56:29.107Z,1023.73
2019-03-27T03:57:29.098Z,1023.76
2019-03-27T03:58:29.094Z,1023.77
2019-03-27T03:59:29.078Z,1023.79
2019-03-27T04:00:29.072Z,1023.85
2019-03-27T04:01:29.046Z,1023.86
2019-03-27T04:02:29.045Z,1023.82
2019-03-27T04:03:29.114Z,1023.91
2019-03-27T04:04:29.016Z,1023.93
2019-03-27T04:05:29.053Z,1023.94
2019-03-27T04:06:28.997Z,1023.89
2019-03-27T04:07:28.986Z,1023.98
2019-03-27T04:08:28.973Z,1023.93
2019-03-27T04:09:28.961Z,1023.93
2019-03-27T04:10:29.015Z,1023.97
2019-03-27T04:11:28.962Z,1023.97
2019-03-27T04:12:29.000Z,1023.95
2019-03-27T04:13:28.920Z,1023.95
2019-03-27T04:14:28.913Z,1023.92
2019-03-27T04:15:28.913Z,1023.92
2019-03-27T04:16:28.889Z,1023.99
2019-03-27T04:17:28.874Z,1023.93
2019-03-27T04:18:28.885Z,1023.95
2019-03-27T04:19:28.867Z,1023.95
2019-03-27T04:20:28.858Z,1023.98
2019-03-27T04:21:28.832Z,1024.00
2019-03-27T04:22:28.831Z,1023.99
2019-03-27T04:23:28.824Z,1023.93
2019-03-27T04:24:28.833Z,1024.01
2019-03-27T04:25:28.811Z,1024.06
2019-03-27T04:26:33.256Z,1024.02
2019-03-27T04:27:28.847Z,1024.00
2019-03-27T04:28:28.762Z,1024.01
2019-03-27T04:29:28.752Z,1024.02
2019-03-27T04:30:28.764Z,1024.05
2019-03-27T04:31:28.756Z,1024.04
2019-03-27T04:32:28.720Z,1024.06
2019-03-27T04:33:28.720Z,1024.04
2019-03-27T04:34:28.694Z,1024.08
2019-03-27T04:35:28.701Z,1024.05
2019-03-27T04:36:28.708Z,1024.06
2019-03-27T04:37:28.669Z,1024.08
2019-03-27T04:38:28.653Z,1024.11
2019-03-27T04:39:28.647Z,1024.12
2019-03-27T04:40:28.655Z,1024.09
2019-03-27T04:41:28.645Z,1024.16
2019-03-27T04:42:28.611Z,1024.13
2019-03-27T04:43:28.603Z,1024.14
2019-03-27T04:44:28.591Z,1024.15
2019-03-27T04:45:28.599Z,1024.16
2019-03-27T04:46:28.575Z,1024.18
2019-03-27T04:47:32.404Z,1024.13
2019-03-27T04:48:28.607Z,1024.15
2019-03-27T04:49:28.542Z,1024.20
2019-03-27T04:50:28.582Z,1024.11
2019-03-27T04:51:28.513Z,1024.12
2019-03-27T04:52:28.508Z,1024.12
2019-03-27T04:53:28.528Z,1024.10
2019-03-27T04:54:28.521Z,1024.13
2019-03-27T04:55:28.472Z,1024.17
2019-03-27T04:56:28.481Z,1024.15
2019-03-27T04:57:28.455Z,1024.17
2019-03-27T04:58:28.450Z,1024.24
2019-03-27T04:59:28.460Z,1024.23
2019-03-27T05:00:28.422Z,1024.27
2019-03-27T05:01:28.424Z,1024.24
2019-03-27T05:02:28.402Z,1024.30
2019-03-27T05:03:28.390Z,1024.33
2019-03-27T05:04:28.388Z,1024.27
2019-03-27T05:05:28.378Z,1024.27
2019-03-27T05:06:28.403Z,1024.28
2019-03-27T05:07:28.347Z,1024.32
2019-03-27T05:08:28.344Z,1024.36
2019-03-27T05:09:28.334Z,1024.28
2019-03-27T05:10:28.318Z,1024.33
2019-03-27T05:11:28.321Z,1024.35
2019-03-27T05:12:28.332Z,1024.36
2019-03-27T05:13:28.279Z,1024.35
2019-03-27T05:14:28.266Z,1024.43
2019-03-27T05:15:28.259Z,1024.44
2019-03-27T05:16:28.272Z,1024.47
2019-03-27T05:17:28.236Z,1024.50
2019-03-27T05:18:28.230Z,1024.50
2019-03-27T05:19:28.230Z,1024.55
2019-03-27T05:20:28.862Z,1024.52
2019-03-27T05:21:28.210Z,1024.53
2019-03-27T05:22:28.188Z,1024.53
2019-03-27T05:23:28.174Z,1024.53
2019-03-27T05:24:28.166Z,1024.47
2019-03-27T05:25:28.158Z,1024.52
2019-03-27T05:26:28.198Z,1024.53
2019-03-27T05:27:28.130Z,1024.54
2019-03-27T05:28:28.128Z,1024.54
2019-03-27T05:29:28.108Z,1024.55
2019-03-27T05:30:28.097Z,1024.57
2019-03-27T05:31:28.110Z,1024.57
2019-03-27T05:32:28.079Z,1024.57
2019-03-27T05:33:28.099Z,1024.54
2019-03-27T05:34:28.056Z,1024.54
2019-03-27T05:35:28.047Z,1024.56
2019-03-27T05:36:28.058Z,1024.55
2019-03-27T05:37:28.023Z,1024.58
2019-03-27T05:38:28.013Z,1024.55
2019-03-27T05:39:28.036Z,1024.59
2019-03-27T05:40:28.047Z,1024.61
2019-03-27T05:41:27.982Z,1024.61
2019-03-27T05:42:27.985Z,1024.62
2019-03-27T05:43:27.959Z,1024.61
2019-03-27T05:44:27.949Z,1024.65
2019-03-27T05:45:27.936Z,1024.65
2019-03-27T05:46:27.943Z,1024.70
2019-03-27T05:47:27.935Z,1024.72
2019-03-27T05:48:27.903Z,1024.74
2019-03-27T05:49:27.899Z,1024.68
2019-03-27T05:50:27.887Z,1024.67
2019-03-27T05:51:27.876Z,1024.73
2019-03-27T05:52:27.896Z,1024.66
2019-03-27T05:53:27.849Z,1024.70
2019-03-27T05:54:27.845Z,1024.60
2019-03-27T05:55:27.839Z,1024.66
2019-03-27T05:56:27.821Z,1024.59
2019-03-27T05:57:27.825Z,1024.67
2019-03-27T05:58:27.820Z,1024.67
2019-03-27T05:59:27.791Z,1024.70
2019-03-27T06:00:27.778Z,1024.62
2019-03-27T06:01:27.768Z,1024.71
2019-03-27T06:02:27.777Z,1024.68
2019-03-27T06:03:27.759Z,1024.73
2019-03-27T06:04:27.781Z,1024.79
2019-03-27T06:05:27.721Z,1024.80
2019-03-27T06:06:27.713Z,1024.85
2019-03-27T06:07:27.719Z,1024.88
2019-03-27T06:08:27.694Z,1024.83
2019-03-27T06:09:27.675Z,1024.91
2019-03-27T06:10:27.712Z,1024.92
2019-03-27T06:11:27.658Z,1024.94
2019-03-27T06:12:27.658Z,1024.93
2019-03-27T06:13:27.637Z,1025.02
2019-03-27T06:14:27.625Z,1024.98
2019-03-27T06:15:27.614Z,1024.97
2019-03-27T06:16:27.605Z,1024.97
2019-03-27T06:17:27.611Z,1025.04
2019-03-27T06:18:27.581Z,1025.03
2019-03-27T06:19:27.566Z,1024.98
2019-03-27T06:20:27.563Z,1024.98
2019-03-27T06:21:27.548Z,1024.97
2019-03-27T06:22:27.552Z,1025.08
2019-03-27T06:23:27.523Z,1025.00
2019-03-27T06:24:27.521Z,1024.98
2019-03-27T06:25:27.515Z,1025.05
2019-03-27T06:26:27.496Z,1025.05
2019-03-27T06:27:27.508Z,1025.05
2019-03-27T06:28:27.472Z,1024.99
2019-03-27T06:29:27.458Z,1024.99
2019-03-27T06:30:27.453Z,1025.03
2019-03-27T06:31:27.456Z,1025.02
2019-03-27T06:32:27.428Z,1025.02
2019-03-27T06:33:27.422Z,1024.99
2019-03-27T06:34:27.401Z,1025.09
2019-03-27T06:35:27.403Z,1025.02
2019-03-27T06:36:27.393Z,1025.07
2019-03-27T06:37:27.372Z,1025.04
2019-03-27T06:38:27.405Z,1025.00
2019-03-27T06:39:27.382Z,1024.95
2019-03-27T06:40:27.347Z,1024.94
2019-03-27T06:41:27.328Z,1024.99
2019-03-27T06:42:27.324Z,1025.00
2019-03-27T06:43:27.323Z,1024.99
2019-03-27T06:44:27.300Z,1025.08
2019-03-27T06:45:27.300Z,1025.09
2019-03-27T06:46:27.288Z,1025.12
2019-03-27T06:47:27.288Z,1025.10
2019-03-27T06:48:27.268Z,1025.10
2019-03-27T06:49:27.250Z,1025.06
2019-03-27T06:50:27.238Z,1025.05
2019-03-27T06:51:39.383Z,1025.09
2019-03-27T06:52:28.294Z,1025.09
2019-03-27T06:53:27.215Z,1025.11
2019-03-27T06:54:27.228Z,1025.12
2019-03-27T06:55:27.205Z,1025.11
2019-03-27T06:56:27.163Z,1025.16
2019-03-27T06:57:27.151Z,1025.18
2019-03-27T06:58:27.190Z,1025.23
2019-03-27T06:59:27.134Z,1025.20
2019-03-27T07:00:27.138Z,1025.14
2019-03-27T07:01:27.117Z,1025.19
2019-03-27T07:02:28.720Z,1025.19
2019-03-27T07:03:27.134Z,1025.14
2019-03-27T07:04:27.085Z,1025.09
2019-03-27T07:05:27.067Z,1025.10
2019-03-27T07:06:27.059Z,1025.15
2019-03-27T07:07:27.052Z,1025.18
2019-03-27T07:08:27.100Z,1025.12
2019-03-27T07:09:27.031Z,1025.22
2019-03-27T07:10:27.018Z,1025.19
2019-03-27T07:11:27.011Z,1025.20
2019-03-27T07:12:26.994Z,1025.15
2019-03-27T07:13:27.006Z,1025.19
2019-03-27T07:14:27.007Z,1025.19
2019-03-27T07:15:26.961Z,1025.22
2019-03-27T07:16:26.956Z,1025.25
2019-03-27T07:17:26.940Z,1025.22
2019-03-27T07:18:39.429Z,1025.30
2019-03-27T07:19:27.917Z,1025.28
2019-03-27T07:20:26.960Z,1025.31
2019-03-27T07:21:26.895Z,1025.33
2019-03-27T07:22:26.886Z,1025.37
2019-03-27T07:23:26.933Z,1025.37
2019-03-27T07:24:26.881Z,1025.35
2019-03-27T07:25:26.849Z,1025.42
2019-03-27T07:26:26.847Z,1025.39
2019-03-27T07:27:26.869Z,1025.38
2019-03-27T07:28:34.973Z,1025.37
2019-03-27T07:29:26.808Z,1025.41
2019-03-27T07:30:26.799Z,1025.44
2019-03-27T07:31:26.802Z,1025.43
2019-03-27T07:32:26.773Z,1025.43
2019-03-27T07:33:26.763Z,1025.45
2019-03-27T07:34:26.793Z,1025.45
2019-03-27T07:35:26.749Z,1025.52
2019-03-27T07:36:26.736Z,1025.50
2019-03-27T07:37:26.722Z,1025.52
2019-03-27T07:38:26.743Z,1025.46
2019-03-27T07:39:26.724Z,1025.46
2019-03-27T07:40:26.695Z,1025.44
2019-03-27T07:41:26.685Z,1025.48
2019-03-27T07:42:28.901Z,1025.52
2019-03-27T07:43:26.681Z,1025.44
2019-03-27T07:44:26.666Z,1025.48
2019-03-27T07:45:26.639Z,1025.53
2019-03-27T07:46:27.103Z,1025.44
2019-03-27T07:47:26.610Z,1025.48
2019-03-27T07:48:26.599Z,1025.53
2019-03-27T07:49:26.828Z,1025.57
2019-03-27T07:50:26.967Z,1025.59
2019-03-27T07:51:26.593Z,1025.49
2019-03-27T07:52:26.556Z,1025.54
2019-03-27T07:53:26.544Z,1025.55
2019-03-27T07:54:26.545Z,1025.54
2019-03-27T07:55:26.535Z,1025.61
2019-03-27T07:56:26.511Z,1025.57
2019-03-27T07:57:26.750Z,1025.62
2019-03-27T07:58:26.490Z,1025.64
2019-03-27T07:59:26.502Z,1025.61
2019-03-27T08:00:26.471Z,1025.64
2019-03-27T08:01:26.467Z,1025.61
2019-03-27T08:02:26.446Z,1025.64
2019-03-27T08:03:26.437Z,1025.63
2019-03-27T08:04:26.448Z,1025.72
2019-03-27T08:05:26.412Z,1025.71
2019-03-27T08:06:26.406Z,1025.69
2019-03-27T08:07:27.287Z,1025.74
2019-03-27T08:08:26.385Z,1025.72
2019-03-27T08:09:26.404Z,1025.73
2019-03-27T08:10:26.416Z,1025.70
2019-03-27T08:11:26.477Z,1025.72
2019-03-27T08:12:26.342Z,1025.69
2019-03-27T08:13:26.339Z,1025.64
2019-03-27T08:14:26.341Z,1025.74
2019-03-27T08:15:26.308Z,1025.78
2019-03-27T08:16:26.316Z,1025.72
2019-03-27T08:17:34.345Z,1025.71
2019-03-27T08:18:26.277Z,1025.72
2019-03-27T08:19:26.285Z,1025.70
2019-03-27T08:20:26.265Z,1025.68
2019-03-27T08:21:26.245Z,1025.62
2019-03-27T08:22:26.258Z,1025.72
2019-03-27T08:23:26.232Z,1025.79
2019-03-27T08:24:26.226Z,1025.77
2019-03-27T08:25:26.204Z,1025.75
2019-03-27T08:26:26.230Z,1025.71
2019-03-27T08:27:26.179Z,1025.71
2019-03-27T08:28:26.169Z,1025.72
2019-03-27T08:29:26.167Z,1025.67
2019-03-27T08:30:26.148Z,1025.69
2019-03-27T08:31:26.161Z,1025.66
2019-03-27T08:32:26.140Z,1025.67
2019-03-27T08:33:26.130Z,1025.73
2019-03-27T08:34:26.127Z,1025.73
2019-03-27T08:35:26.089Z,1025.77
2019-03-27T08:36:26.080Z,1025.78
2019-03-27T08:37:26.066Z,1025.77
2019-03-27T08:38:26.059Z,1025.86
2019-03-27T08:39:26.066Z,1025.83
2019-03-27T08:40:26.174Z,1025.81
2019-03-27T08:41:26.029Z,1025.83
2019-03-27T08:42:26.046Z,1025.80
2019-03-27T08:43:26.247Z,1025.76
2019-03-27T08:44:25.994Z,1025.81
2019-03-27T08:45:25.992Z,1025.82
2019-03-27T08:46:26.183Z,1025.79
2019-03-27T08:47:35.709Z,1025.75
2019-03-27T08:48:25.951Z,1025.83
2019-03-27T08:49:25.943Z,1025.73
2019-03-27T08:50:26.003Z,1025.80
2019-03-27T08:51:25.929Z,1025.87
2019-03-27T08:52:25.924Z,1025.84
2019-03-27T08:53:25.889Z,1025.80
2019-03-27T08:54:25.907Z,1025.85
2019-03-27T08:55:25.883Z,1025.90
2019-03-27T08:56:25.857Z,1025.86
2019-03-27T08:57:25.889Z,1025.87
2019-03-27T08:58:25.840Z,1025.89
2019-03-27T08:59:25.826Z,1025.89
2019-03-27T09:00:25.860Z,1025.89
2019-03-27T09:01:25.805Z,1025.93
2019-03-27T09:02:25.793Z,1025.94
2019-03-27T09:03:25.779Z,1026.04
2019-03-27T09:04:25.776Z,1026.02
2019-03-27T09:05:25.785Z,1026.00
2019-03-27T09:06:33.525Z,1025.96
2019-03-27T09:07:26.754Z,1025.99
2019-03-27T09:08:25.731Z,1025.93
2019-03-27T09:09:25.720Z,1025.93
2019-03-27T09:10:25.723Z,1026.01
2019-03-27T09:11:25.697Z,1026.04
2019-03-27T09:12:25.689Z,1025.98
2019-03-27T09:13:25.674Z,1026.01
2019-03-27T09:14:25.692Z,1026.09
2019-03-27T09:15:25.679Z,1026.06
2019-03-27T09:16:25.638Z,1026.02
2019-03-27T09:17:25.626Z,1026.22
2019-03-27T09:18:25.637Z,1026.22
2019-03-27T09:19:35.584Z,1026.27
2019-03-27T09:20:26.640Z,1026.18
2019-03-27T09:21:25.742Z,1026.23
2019-03-27T09:22:26.332Z,1026.24
2019-03-27T09:23:25.631Z,1026.35
2019-03-27T09:24:25.686Z,1026.31
2019-03-27T09:25:25.646Z,1026.26
2019-03-27T09:26:25.547Z,1026.13
2019-03-27T09:27:25.524Z,1026.13
2019-03-27T09:28:25.507Z,1026.02
2019-03-27T09:29:25.699Z,1026.08
2019-03-27T09:30:25.566Z,1026.10
2019-03-27T09:31:25.545Z,1026.00
2019-03-27T09:32:25.672Z,1026.00
2019-03-27T09:33:25.472Z,1025.95
2019-03-27T09:34:25.623Z,1025.95
2019-03-27T09:35:25.623Z,1025.94
2019-03-27T09:36:25.648Z,1025.95
2019-03-27T09:37:25.622Z,1026.05
2019-03-27T09:38:25.622Z,1026.05
2019-03-27T09:39:25.392Z,1026.03
2019-03-27T09:40:25.378Z,1026.01
2019-03-27T09:41:25.458Z,1026.07
2019-03-27T09:42:25.531Z,1026.01
2019-03-27T09:43:25.344Z,1026.04
2019-03-27T09:44:25.343Z,1026.04
2019-03-27T09:45:25.321Z,1026.03
2019-03-27T09:46:25.330Z,1025.97
2019-03-27T09:47:25.317Z,1025.93
2019-03-27T09:48:25.287Z,1025.90
2019-03-27T09:49:25.399Z,1025.95
2019-03-27T09:50:25.266Z,1025.90
2019-03-27T09:51:25.277Z,1026.06
2019-03-27T09:52:25.279Z,1026.05
2019-03-27T09:53:25.238Z,1026.07
2019-03-27T09:54:25.222Z,1026.07
2019-03-27T09:55:25.217Z,1026.03
2019-03-27T09:56:25.220Z,1025.95
2019-03-27T09:57:35.993Z,1026.03
2019-03-27T09:58:25.179Z,1026.03
2019-03-27T09:59:25.185Z,1025.98
2019-03-27T10:00:25.159Z,1026.04
2019-03-27T10:01:25.169Z,1026.07
2019-03-27T10:02:25.147Z,1026.12
2019-03-27T10:03:25.152Z,1026.12
2019-03-27T10:04:25.126Z,1026.02
2019-03-27T10:05:25.104Z,1026.05
2019-03-27T10:06:25.116Z,1026.08
2019-03-27T10:07:25.113Z,1025.99
2019-03-27T10:08:25.107Z,1026.03
2019-03-27T10:09:25.065Z,1026.05
2019-03-27T10:10:25.069Z,1026.01
2019-03-27T10:11:25.051Z,1026.08
2019-03-27T10:12:25.033Z,1026.06
2019-03-27T10:13:25.041Z,1026.07
2019-03-27T10:14:25.013Z,1026.06
2019-03-27T10:15:25.006Z,1026.06
2019-03-27T10:16:25.047Z,1026.05
2019-03-27T10:17:24.975Z,1026.12
2019-03-27T10:18:24.963Z,1026.08
2019-03-27T10:19:25.003Z,1026.13
2019-03-27T10:20:24.969Z,1026.23
2019-03-27T10:21:25.008Z,1026.11
2019-03-27T10:22:24.982Z,1026.21
2019-03-27T10:23:24.930Z,1026.20
2019-03-27T10:24:24.942Z,1026.23
2019-03-27T10:25:24.913Z,1026.25
2019-03-27T10:26:24.909Z,1026.13
2019-03-27T10:27:24.908Z,1026.22
2019-03-27T10:28:24.860Z,1026.10
2019-03-27T10:29:24.845Z,1026.12
2019-03-27T10:30:24.856Z,1026.07
2019-03-27T10:31:24.865Z,1026.07
2019-03-27T10:32:24.811Z,1026.13
2019-03-27T10:33:24.833Z,1026.19
2019-03-27T10:34:24.787Z,1026.16
2019-03-27T10:35:24.776Z,1026.12
2019-03-27T10:36:24.797Z,1026.12
2019-03-27T10:37:24.768Z,1026.09
2019-03-27T10:38:24.750Z,1026.14
2019-03-27T10:39:24.737Z,1026.11
2019-03-27T10:40:24.727Z,1026.14
2019-03-27T10:41:24.717Z,1026.12
2019-03-27T10:42:24.732Z,1026.17
2019-03-27T10:43:24.705Z,1026.20
2019-03-27T10:44:24.681Z,1026.18
2019-03-27T10:45:24.666Z,1026.18
2019-03-27T10:46:24.669Z,1026.23
2019-03-27T10:47:24.660Z,1026.19
2019-03-27T10:48:24.635Z,1026.14
2019-03-27T10:49:24.636Z,1026.16
2019-03-27T10:50:24.620Z,1026.18
2019-03-27T10:51:24.609Z,1026.24
2019-03-27T10:52:24.664Z,1026.22
2019-03-27T10:53:24.585Z,1026.17
2019-03-27T10:54:24.622Z,1026.17
2019-03-27T10:55:24.580Z,1026.14
2019-03-27T10:56:24.548Z,1026.09
2019-03-27T10:57:24.576Z,1026.13
2019-03-27T10:58:24.612Z,1026.16
2019-03-27T10:59:24.512Z,1026.11
2019-03-27T11:00:24.519Z,1026.01
2019-03-27T11:01:24.506Z,1026.08
2019-03-27T11:02:24.534Z,1026.09
2019-03-27T11:03:24.488Z,1026.08
2019-03-27T11:04:24.456Z,1026.18
2019-03-27T11:05:24.448Z,1026.09
2019-03-27T11:06:24.442Z,1026.17
2019-03-27T11:07:24.468Z,1026.13
2019-03-27T11:08:24.492Z,1026.06
2019-03-27T11:09:24.406Z,1026.04
2019-03-27T11:10:24.396Z,1026.08
2019-03-27T11:11:24.402Z,1026.08
2019-03-27T11:12:24.367Z,1026.03
2019-03-27T11:13:24.386Z,1025.99
2019-03-27T11:14:36.816Z,1025.98
2019-03-27T11:15:25.348Z,1025.98
2019-03-27T11:16:24.328Z,1026.01
2019-03-27T11:17:24.329Z,1026.01
2019-03-27T11:18:24.414Z,1026.15
2019-03-27T11:19:24.291Z,1026.12
2019-03-27T11:20:30.746Z,1026.13
2019-03-27T11:21:25.301Z,1026.05
2019-03-27T11:22:24.281Z,1026.05
2019-03-27T11:23:24.333Z,1026.05
2019-03-27T11:24:24.238Z,1026.11
2019-03-27T11:25:24.227Z,1026.12
2019-03-27T11:26:24.232Z,1026.13
2019-03-27T11:27:24.233Z,1026.12
2019-03-27T11:28:24.219Z,1026.09
2019-03-27T11:29:24.189Z,1026.03
2019-03-27T11:30:24.180Z,1026.15
2019-03-27T11:31:24.162Z,1026.11
2019-03-27T11:32:24.156Z,1026.14
2019-03-27T11:33:24.170Z,1026.12
2019-03-27T11:34:24.142Z,1026.03
2019-03-27T11:35:24.118Z,1026.03
2019-03-27T11:36:24.119Z,1025.99
2019-03-27T11:37:24.127Z,1026.06
2019-03-27T11:38:24.083Z,1026.03
2019-03-27T11:39:24.825Z,1026.01
2019-03-27T11:40:24.087Z,1026.14
2019-03-27T11:41:24.065Z,1026.23
2019-03-27T11:42:24.049Z,1026.11
2019-03-27T11:43:24.053Z,1026.00
2019-03-27T11:44:24.065Z,1025.91
2019-03-27T11:45:24.056Z,1025.92
2019-03-27T11:46:24.009Z,1025.92
2019-03-27T11:47:23.999Z,1025.97
2019-03-27T11:48:24.053Z,1025.92
2019-03-27T11:49:23.967Z,1025.99
2019-03-27T11:50:23.966Z,1026.05
2019-03-27T11:51:23.941Z,1025.96
2019-03-27T11:52:23.935Z,1025.98
2019-03-27T11:53:23.973Z,1025.98
2019-03-27T11:54:23.944Z,1026.06
2019-03-27T11:55:23.911Z,1025.96
2019-03-27T11:56:23.886Z,1025.94
2019-03-27T11:57:23.896Z,1025.88
2019-03-27T11:58:23.890Z,1025.88
2019-03-27T11:59:23.867Z,1025.91
2019-03-27T12:00:23.858Z,1025.86
2019-03-27T12:01:23.840Z,1025.84
2019-03-27T12:02:23.831Z,1025.80
2019-03-27T12:03:23.945Z,1025.91
2019-03-27T12:04:23.801Z,1025.86
2019-03-27T12:05:23.800Z,1025.91